sensor_id;sensor_type;location;lat;lon;timestamp;P1;durP1;ratioP1;P2;durP2;ratioP2
55372;SDS011;70018;47.838;16.490;2023-05-10T00:01:36;3.38;;;2.17;;
55372;SDS011;70018;47.838;16.490;2023-05-10T00:04:03;2.65;;;1.75;;
55372;SDS011;70018;47.838;16.490;2023-05-10T00:06:30;2.33;;;1.60;;
55372;SDS011;70018;47.838;16.490;2023-05-10T00:08:57;2.92;;;1.98;;
55372;SDS011;70018;47.838;16.490;2023-05-10T00:11:24;3.05;;;2.10;;
55372;SDS011;70018;47.838;16.490;2023-05-10T00:13:50;5.40;;;1.77;;
55372;SDS011;70018;47.838;16.490;2023-05-10T00:16:17;2.40;;;1.60;;
55372;SDS011;70018;47.838;16.490;2023-05-10T00:18:44;2.20;;;1.50;;
55372;SDS011;70018;47.838;16.490;2023-05-10T00:21:10;1.90;;;1.38;;
55372;SDS011;70018;47.838;16.490;2023-05-10T00:23:37;2.35;;;1.50;;
55372;SDS011;70018;47.838;16.490;2023-05-10T00:26:04;2.53;;;1.65;;
55372;SDS011;70018;47.838;16.490;2023-05-10T00:28:30;3.55;;;1.95;;
55372;SDS011;70018;47.838;16.490;2023-05-10T00:30:57;2.00;;;1.50;;
55372;SDS011;70018;47.838;16.490;2023-05-10T00:33:23;4.90;;;2.05;;
55372;SDS011;70018;47.838;16.490;2023-05-10T00:35:50;2.92;;;1.95;;
55372;SDS011;70018;47.838;16.490;2023-05-10T00:38:17;2.08;;;1.77;;
55372;SDS011;70018;47.838;16.490;2023-05-10T00:40:44;2.33;;;1.50;;
55372;SDS011;70018;47.838;16.490;2023-05-10T00:43:10;3.15;;;1.95;;
55372;SDS011;70018;47.838;16.490;2023-05-10T00:45:37;3.05;;;1.58;;
55372;SDS011;70018;47.838;16.490;2023-05-10T00:48:06;3.05;;;2.00;;
55372;SDS011;70018;47.838;16.490;2023-05-10T00:50:32;3.85;;;1.77;;
55372;SDS011;70018;47.838;16.490;2023-05-10T00:53:00;2.90;;;1.90;;
55372;SDS011;70018;47.838;16.490;2023-05-10T00:55:27;2.65;;;1.95;;
55372;SDS011;70018;47.838;16.490;2023-05-10T00:57:54;4.75;;;2.40;;
55372;SDS011;70018;47.838;16.490;2023-05-10T01:00:20;4.03;;;2.35;;
55372;SDS011;70018;47.838;16.490;2023-05-10T01:02:47;4.53;;;1.90;;
55372;SDS011;70018;47.838;16.490;2023-05-10T01:05:15;4.75;;;2.03;;
55372;SDS011;70018;47.838;16.490;2023-05-10T01:07:42;3.03;;;2.00;;
55372;SDS011;70018;47.838;16.490;2023-05-10T01:10:09;3.05;;;2.03;;
55372;SDS011;70018;47.838;16.490;2023-05-10T01:12:37;3.55;;;2.08;;
55372;SDS011;70018;47.838;16.490;2023-05-10T01:15:06;3.28;;;2.17;;
55372;SDS011;70018;47.838;16.490;2023-05-10T01:17:37;2.70;;;1.90;;
55372;SDS011;70018;47.838;16.490;2023-05-10T01:20:06;5.63;;;2.45;;
55372;SDS011;70018;47.838;16.490;2023-05-10T01:22:41;5.25;;;1.80;;
55372;SDS011;70018;47.838;16.490;2023-05-10T01:36:17;3.72;;;1.90;;
55372;SDS011;70018;47.838;16.490;2023-05-10T01:39:02;2.90;;;2.17;;
55372;SDS011;70018;47.838;16.490;2023-05-10T01:44:37;4.10;;;2.33;;
55372;SDS011;70018;47.838;16.490;2023-05-10T01:47:13;3.78;;;2.35;;
55372;SDS011;70018;47.838;16.490;2023-05-10T01:49:44;3.75;;;2.33;;
55372;SDS011;70018;47.838;16.490;2023-05-10T01:52:14;3.80;;;2.50;;
55372;SDS011;70018;47.838;16.490;2023-05-10T01:54:49;4.10;;;2.30;;
55372;SDS011;70018;47.838;16.490;2023-05-10T01:57:20;3.63;;;2.50;;
55372;SDS011;70018;47.838;16.490;2023-05-10T01:59:51;2.63;;;2.10;;
55372;SDS011;70018;47.838;16.490;2023-05-10T02:02:20;5.68;;;1.88;;
55372;SDS011;70018;47.838;16.490;2023-05-10T02:04:47;2.25;;;1.63;;
55372;SDS011;70018;47.838;16.490;2023-05-10T02:07:16;2.63;;;1.65;;
55372;SDS011;70018;47.838;16.490;2023-05-10T02:09:44;3.25;;;2.30;;
55372;SDS011;70018;47.838;16.490;2023-05-10T02:12:15;3.60;;;2.42;;
55372;SDS011;70018;47.838;16.490;2023-05-10T02:14:44;3.88;;;1.73;;
55372;SDS011;70018;47.838;16.490;2023-05-10T02:17:12;4.72;;;1.80;;
55372;SDS011;70018;47.838;16.490;2023-05-10T02:19:40;2.75;;;1.70;;
55372;SDS011;70018;47.838;16.490;2023-05-10T02:22:08;2.40;;;1.48;;
55372;SDS011;70018;47.838;16.490;2023-05-10T02:24:36;2.53;;;1.80;;
55372;SDS011;70018;47.838;16.490;2023-05-10T02:27:04;3.78;;;1.85;;
55372;SDS011;70018;47.838;16.490;2023-05-10T02:29:32;2.38;;;1.75;;
55372;SDS011;70018;47.838;16.490;2023-05-10T02:31:59;3.97;;;2.65;;
55372;SDS011;70018;47.838;16.490;2023-05-10T02:34:27;3.20;;;2.05;;
55372;SDS011;70018;47.838;16.490;2023-05-10T02:36:55;3.47;;;2.00;;
55372;SDS011;70018;47.838;16.490;2023-05-10T02:39:22;3.35;;;1.95;;
55372;SDS011;70018;47.838;16.490;2023-05-10T02:41:50;3.08;;;2.20;;
55372;SDS011;70018;47.838;16.490;2023-05-10T02:44:19;3.97;;;2.45;;
55372;SDS011;70018;47.838;16.490;2023-05-10T02:46:48;3.45;;;2.13;;
55372;SDS011;70018;47.838;16.490;2023-05-10T02:49:15;2.53;;;1.90;;
55372;SDS011;70018;47.838;16.490;2023-05-10T02:51:47;7.00;;;2.65;;
55372;SDS011;70018;47.838;16.490;2023-05-10T02:54:22;5.43;;;2.28;;
55372;SDS011;70018;47.838;16.490;2023-05-10T02:56:53;4.10;;;2.28;;
55372;SDS011;70018;47.838;16.490;2023-05-10T02:59:23;3.88;;;2.40;;
55372;SDS011;70018;47.838;16.490;2023-05-10T03:01:49;3.78;;;2.50;;
55372;SDS011;70018;47.838;16.490;2023-05-10T03:04:16;4.03;;;2.05;;
55372;SDS011;70018;47.838;16.490;2023-05-10T03:06:43;4.43;;;2.80;;
55372;SDS011;70018;47.838;16.490;2023-05-10T03:09:10;3.67;;;2.55;;
55372;SDS011;70018;47.838;16.490;2023-05-10T03:15:08;4.20;;;2.00;;
55372;SDS011;70018;47.838;16.490;2023-05-10T03:17:57;3.17;;;2.42;;
55372;SDS011;70018;47.838;16.490;2023-05-10T03:20:36;3.38;;;2.35;;
55372;SDS011;70018;47.838;16.490;2023-05-10T03:25:46;5.70;;;2.72;;
55372;SDS011;70018;47.838;16.490;2023-05-10T03:28:15;3.40;;;2.38;;
55372;SDS011;70018;47.838;16.490;2023-05-10T03:30:42;5.82;;;2.90;;
55372;SDS011;70018;47.838;16.490;2023-05-10T03:33:09;3.55;;;2.50;;
55372;SDS011;70018;47.838;16.490;2023-05-10T03:35:36;3.00;;;2.17;;
55372;SDS011;70018;47.838;16.490;2023-05-10T03:38:03;3.28;;;2.17;;
55372;SDS011;70018;47.838;16.490;2023-05-10T03:40:30;5.35;;;1.83;;
55372;SDS011;70018;47.838;16.490;2023-05-10T03:42:58;4.03;;;2.10;;
55372;SDS011;70018;47.838;16.490;2023-05-10T03:45:25;3.90;;;2.60;;
55372;SDS011;70018;47.838;16.490;2023-05-10T03:47:52;3.03;;;2.10;;
55372;SDS011;70018;47.838;16.490;2023-05-10T03:50:20;4.20;;;3.10;;
55372;SDS011;70018;47.838;16.490;2023-05-10T03:52:47;5.85;;;2.67;;
55372;SDS011;70018;47.838;16.490;2023-05-10T03:55:14;3.38;;;2.65;;
55372;SDS011;70018;47.838;16.490;2023-05-10T03:57:41;3.70;;;2.15;;
55372;SDS011;70018;47.838;16.490;2023-05-10T04:00:08;3.92;;;2.20;;
55372;SDS011;70018;47.838;16.490;2023-05-10T04:02:35;7.60;;;2.47;;
55372;SDS011;70018;47.838;16.490;2023-05-10T04:05:03;4.13;;;2.90;;
55372;SDS011;70018;47.838;16.490;2023-05-10T04:07:30;6.57;;;3.42;;
55372;SDS011;70018;47.838;16.490;2023-05-10T04:09:57;4.00;;;2.75;;
55372;SDS011;70018;47.838;16.490;2023-05-10T04:12:23;3.35;;;2.60;;
55372;SDS011;70018;47.838;16.490;2023-05-10T04:14:50;3.45;;;2.30;;
55372;SDS011;70018;47.838;16.490;2023-05-10T04:17:17;4.40;;;2.67;;
55372;SDS011;70018;47.838;16.490;2023-05-10T04:19:43;4.10;;;2.00;;
55372;SDS011;70018;47.838;16.490;2023-05-10T04:22:10;3.35;;;2.13;;
55372;SDS011;70018;47.838;16.490;2023-05-10T04:24:36;3.05;;;2.10;;
55372;SDS011;70018;47.838;16.490;2023-05-10T04:27:03;4.65;;;3.08;;
55372;SDS011;70018;47.838;16.490;2023-05-10T04:29:30;8.82;;;2.40;;
55372;SDS011;70018;47.838;16.490;2023-05-10T04:31:57;3.30;;;2.70;;
55372;SDS011;70018;47.838;16.490;2023-05-10T04:34:23;2.97;;;2.30;;
55372;SDS011;70018;47.838;16.490;2023-05-10T04:36:50;2.92;;;2.08;;
55372;SDS011;70018;47.838;16.490;2023-05-10T04:39:17;4.45;;;2.97;;
55372;SDS011;70018;47.838;16.490;2023-05-10T04:41:43;3.67;;;2.70;;
55372;SDS011;70018;47.838;16.490;2023-05-10T04:44:10;5.18;;;2.80;;
55372;SDS011;70018;47.838;16.490;2023-05-10T04:46:36;4.60;;;2.85;;
55372;SDS011;70018;47.838;16.490;2023-05-10T04:49:03;2.72;;;2.15;;
55372;SDS011;70018;47.838;16.490;2023-05-10T04:51:29;2.40;;;1.70;;
55372;SDS011;70018;47.838;16.490;2023-05-10T04:53:57;2.38;;;1.83;;
55372;SDS011;70018;47.838;16.490;2023-05-10T04:56:32;2.75;;;1.80;;
55372;SDS011;70018;47.838;16.490;2023-05-10T04:58:58;2.80;;;2.10;;
55372;SDS011;70018;47.838;16.490;2023-05-10T05:01:25;3.17;;;1.85;;
55372;SDS011;70018;47.838;16.490;2023-05-10T05:03:52;7.47;;;1.90;;
55372;SDS011;70018;47.838;16.490;2023-05-10T05:06:19;2.78;;;2.13;;
55372;SDS011;70018;47.838;16.490;2023-05-10T05:08:47;3.55;;;1.95;;
55372;SDS011;70018;47.838;16.490;2023-05-10T05:11:15;2.97;;;2.25;;
55372;SDS011;70018;47.838;16.490;2023-05-10T05:13:43;2.67;;;2.00;;
55372;SDS011;70018;47.838;16.490;2023-05-10T05:16:10;3.42;;;1.63;;
55372;SDS011;70018;47.838;16.490;2023-05-10T05:18:37;3.40;;;1.80;;
55372;SDS011;70018;47.838;16.490;2023-05-10T05:21:14;3.13;;;1.95;;
55372;SDS011;70018;47.838;16.490;2023-05-10T05:23:42;3.08;;;2.35;;
55372;SDS011;70018;47.838;16.490;2023-05-10T05:26:08;3.92;;;2.05;;
55372;SDS011;70018;47.838;16.490;2023-05-10T05:28:35;6.05;;;1.90;;
55372;SDS011;70018;47.838;16.490;2023-05-10T05:31:04;2.65;;;1.95;;
55372;SDS011;70018;47.838;16.490;2023-05-10T05:33:31;3.53;;;1.80;;
55372;SDS011;70018;47.838;16.490;2023-05-10T05:36:00;3.00;;;2.38;;
55372;SDS011;70018;47.838;16.490;2023-05-10T05:38:27;2.70;;;1.90;;
55372;SDS011;70018;47.838;16.490;2023-05-10T05:40:54;3.65;;;2.15;;
55372;SDS011;70018;47.838;16.490;2023-05-10T05:43:21;2.08;;;1.67;;
55372;SDS011;70018;47.838;16.490;2023-05-10T05:45:47;3.50;;;2.05;;
55372;SDS011;70018;47.838;16.490;2023-05-10T05:48:14;2.65;;;2.10;;
55372;SDS011;70018;47.838;16.490;2023-05-10T05:50:40;2.65;;;1.60;;
55372;SDS011;70018;47.838;16.490;2023-05-10T05:53:07;3.42;;;1.60;;
55372;SDS011;70018;47.838;16.490;2023-05-10T05:55:34;3.67;;;2.35;;
55372;SDS011;70018;47.838;16.490;2023-05-10T05:58:01;2.80;;;2.05;;
55372;SDS011;70018;47.838;16.490;2023-05-10T06:00:28;3.35;;;1.70;;
55372;SDS011;70018;47.838;16.490;2023-05-10T06:02:55;3.20;;;2.15;;
55372;SDS011;70018;47.838;16.490;2023-05-10T06:05:21;2.65;;;1.98;;
55372;SDS011;70018;47.838;16.490;2023-05-10T06:07:48;4.15;;;2.00;;
55372;SDS011;70018;47.838;16.490;2023-05-10T06:10:15;4.47;;;2.05;;
55372;SDS011;70018;47.838;16.490;2023-05-10T06:12:41;3.38;;;2.20;;
55372;SDS011;70018;47.838;16.490;2023-05-10T06:15:08;3.08;;;2.22;;
55372;SDS011;70018;47.838;16.490;2023-05-10T06:17:35;4.28;;;2.60;;
55372;SDS011;70018;47.838;16.490;2023-05-10T06:20:02;4.53;;;2.08;;
55372;SDS011;70018;47.838;16.490;2023-05-10T06:22:29;2.60;;;2.00;;
55372;SDS011;70018;47.838;16.490;2023-05-10T06:24:55;2.70;;;1.95;;
55372;SDS011;70018;47.838;16.490;2023-05-10T06:27:22;3.75;;;2.08;;
55372;SDS011;70018;47.838;16.490;2023-05-10T06:29:49;7.47;;;2.38;;
55372;SDS011;70018;47.838;16.490;2023-05-10T06:32:24;3.08;;;1.70;;
55372;SDS011;70018;47.838;16.490;2023-05-10T06:34:51;2.58;;;1.92;;
55372;SDS011;70018;47.838;16.490;2023-05-10T06:37:18;2.85;;;2.20;;
55372;SDS011;70018;47.838;16.490;2023-05-10T06:39:44;8.07;;;2.45;;
55372;SDS011;70018;47.838;16.490;2023-05-10T06:42:11;4.13;;;2.17;;
55372;SDS011;70018;47.838;16.490;2023-05-10T06:44:38;4.40;;;1.95;;
55372;SDS011;70018;47.838;16.490;2023-05-10T06:47:04;2.40;;;1.75;;
55372;SDS011;70018;47.838;16.490;2023-05-10T06:49:31;4.30;;;2.33;;
55372;SDS011;70018;47.838;16.490;2023-05-10T06:51:57;4.38;;;2.13;;
55372;SDS011;70018;47.838;16.490;2023-05-10T06:54:24;2.20;;;1.48;;
55372;SDS011;70018;47.838;16.490;2023-05-10T06:56:50;3.65;;;1.77;;
55372;SDS011;70018;47.838;16.490;2023-05-10T06:59:17;3.30;;;1.73;;
55372;SDS011;70018;47.838;16.490;2023-05-10T07:01:45;5.05;;;2.60;;
55372;SDS011;70018;47.838;16.490;2023-05-10T07:04:12;4.20;;;2.22;;
55372;SDS011;70018;47.838;16.490;2023-05-10T07:06:39;2.97;;;2.00;;
55372;SDS011;70018;47.838;16.490;2023-05-10T07:09:06;3.53;;;2.28;;
55372;SDS011;70018;47.838;16.490;2023-05-10T07:11:33;2.90;;;2.00;;
55372;SDS011;70018;47.838;16.490;2023-05-10T07:14:00;3.00;;;1.98;;
55372;SDS011;70018;47.838;16.490;2023-05-10T07:16:27;4.22;;;2.15;;
55372;SDS011;70018;47.838;16.490;2023-05-10T07:18:54;3.83;;;2.20;;
55372;SDS011;70018;47.838;16.490;2023-05-10T07:21:20;3.30;;;2.10;;
55372;SDS011;70018;47.838;16.490;2023-05-10T07:23:47;3.08;;;1.95;;
55372;SDS011;70018;47.838;16.490;2023-05-10T07:26:13;2.40;;;1.92;;
55372;SDS011;70018;47.838;16.490;2023-05-10T07:28:41;3.80;;;1.92;;
55372;SDS011;70018;47.838;16.490;2023-05-10T07:31:08;3.67;;;2.08;;
55372;SDS011;70018;47.838;16.490;2023-05-10T07:33:34;2.88;;;1.98;;
55372;SDS011;70018;47.838;16.490;2023-05-10T07:36:01;3.92;;;2.08;;
55372;SDS011;70018;47.838;16.490;2023-05-10T07:38:28;2.88;;;1.98;;
55372;SDS011;70018;47.838;16.490;2023-05-10T07:40:54;4.15;;;2.60;;
55372;SDS011;70018;47.838;16.490;2023-05-10T07:43:21;3.80;;;2.22;;
55372;SDS011;70018;47.838;16.490;2023-05-10T07:45:47;3.35;;;2.40;;
55372;SDS011;70018;47.838;16.490;2023-05-10T07:48:14;4.93;;;2.40;;
55372;SDS011;70018;47.838;16.490;2023-05-10T07:50:41;3.13;;;2.60;;
55372;SDS011;70018;47.838;16.490;2023-05-10T07:53:08;4.40;;;2.72;;
55372;SDS011;70018;47.838;16.490;2023-05-10T07:55:34;6.65;;;2.83;;
55372;SDS011;70018;47.838;16.490;2023-05-10T07:58:01;2.50;;;1.90;;
55372;SDS011;70018;47.838;16.490;2023-05-10T08:00:28;3.95;;;2.30;;
55372;SDS011;70018;47.838;16.490;2023-05-10T08:02:54;2.85;;;2.28;;
55372;SDS011;70018;47.838;16.490;2023-05-10T08:05:21;4.43;;;2.17;;
55372;SDS011;70018;47.838;16.490;2023-05-10T08:07:48;2.88;;;2.00;;
55372;SDS011;70018;47.838;16.490;2023-05-10T08:10:14;2.80;;;2.10;;
55372;SDS011;70018;47.838;16.490;2023-05-10T08:12:41;4.80;;;2.20;;
55372;SDS011;70018;47.838;16.490;2023-05-10T08:15:07;3.72;;;2.28;;
55372;SDS011;70018;47.838;16.490;2023-05-10T08:17:34;2.90;;;1.95;;
55372;SDS011;70018;47.838;16.490;2023-05-10T08:20:01;3.53;;;2.00;;
55372;SDS011;70018;47.838;16.490;2023-05-10T08:22:28;2.78;;;1.95;;
55372;SDS011;70018;47.838;16.490;2023-05-10T08:24:54;2.72;;;1.88;;
55372;SDS011;70018;47.838;16.490;2023-05-10T08:27:21;4.68;;;2.20;;
55372;SDS011;70018;47.838;16.490;2023-05-10T08:29:48;5.05;;;1.95;;
55372;SDS011;70018;47.838;16.490;2023-05-10T08:32:16;2.25;;;1.75;;
55372;SDS011;70018;47.838;16.490;2023-05-10T08:34:42;2.45;;;1.55;;
55372;SDS011;70018;47.838;16.490;2023-05-10T08:37:09;2.90;;;1.65;;
55372;SDS011;70018;47.838;16.490;2023-05-10T08:39:39;2.42;;;1.40;;
55372;SDS011;70018;47.838;16.490;2023-05-10T08:42:06;1.80;;;1.30;;
55372;SDS011;70018;47.838;16.490;2023-05-10T08:44:34;1.83;;;1.27;;
55372;SDS011;70018;47.838;16.490;2023-05-10T08:47:04;4.25;;;1.50;;
55372;SDS011;70018;47.838;16.490;2023-05-10T08:49:33;11.20;;;2.33;;
55372;SDS011;70018;47.838;16.490;2023-05-10T08:52:01;2.53;;;1.35;;
55372;SDS011;70018;47.838;16.490;2023-05-10T08:54:33;7.03;;;1.38;;
55372;SDS011;70018;47.838;16.490;2023-05-10T08:57:00;4.50;;;1.25;;
55372;SDS011;70018;47.838;16.490;2023-05-10T08:59:27;4.78;;;1.25;;
55372;SDS011;70018;47.838;16.490;2023-05-10T09:01:55;2.63;;;1.10;;
55372;SDS011;70018;47.838;16.490;2023-05-10T09:04:27;1.67;;;1.13;;
55372;SDS011;70018;47.838;16.490;2023-05-10T09:06:54;1.00;;;0.90;;
55372;SDS011;70018;47.838;16.490;2023-05-10T09:09:21;3.17;;;1.02;;
55372;SDS011;70018;47.838;16.490;2023-05-10T09:11:48;1.20;;;1.02;;
55372;SDS011;70018;47.838;16.490;2023-05-10T09:14:14;1.50;;;0.70;;
55372;SDS011;70018;47.838;16.490;2023-05-10T09:16:42;1.90;;;0.90;;
55372;SDS011;70018;47.838;16.490;2023-05-10T09:19:09;0.88;;;0.70;;
55372;SDS011;70018;47.838;16.490;2023-05-10T09:21:35;1.25;;;0.80;;
55372;SDS011;70018;47.838;16.490;2023-05-10T09:24:05;1.33;;;0.80;;
55372;SDS011;70018;47.838;16.490;2023-05-10T09:26:33;1.67;;;0.88;;
55372;SDS011;70018;47.838;16.490;2023-05-10T09:28:59;1.30;;;0.90;;
55372;SDS011;70018;47.838;16.490;2023-05-10T09:31:46;1.27;;;0.88;;
55372;SDS011;70018;47.838;16.490;2023-05-10T09:34:21;1.30;;;0.80;;
55372;SDS011;70018;47.838;16.490;2023-05-10T09:36:57;1.08;;;0.70;;
55372;SDS011;70018;47.838;16.490;2023-05-10T09:39:34;1.55;;;0.93;;
55372;SDS011;70018;47.838;16.490;2023-05-10T09:42:07;1.00;;;0.80;;
55372;SDS011;70018;47.838;16.490;2023-05-10T09:44:37;1.10;;;0.80;;
55372;SDS011;70018;47.838;16.490;2023-05-10T09:47:04;0.75;;;0.63;;
55372;SDS011;70018;47.838;16.490;2023-05-10T09:49:31;0.93;;;0.65;;
55372;SDS011;70018;47.838;16.490;2023-05-10T09:52:04;2.55;;;0.90;;
55372;SDS011;70018;47.838;16.490;2023-05-10T09:54:32;4.40;;;0.75;;
55372;SDS011;70018;47.838;16.490;2023-05-10T09:57:00;2.13;;;1.02;;
55372;SDS011;70018;47.838;16.490;2023-05-10T09:59:27;1.40;;;0.95;;
55372;SDS011;70018;47.838;16.490;2023-05-10T10:01:58;1.70;;;0.90;;
55372;SDS011;70018;47.838;16.490;2023-05-10T10:04:26;2.45;;;0.88;;
55372;SDS011;70018;47.838;16.490;2023-05-10T10:07:00;2.13;;;1.05;;
55372;SDS011;70018;47.838;16.490;2023-05-10T10:09:30;1.10;;;1.00;;
55372;SDS011;70018;47.838;16.490;2023-05-10T10:11:58;1.23;;;0.90;;
55372;SDS011;70018;47.838;16.490;2023-05-10T10:14:25;1.40;;;1.23;;
55372;SDS011;70018;47.838;16.490;2023-05-10T10:16:52;1.80;;;1.00;;
55372;SDS011;70018;47.838;16.490;2023-05-10T10:19:33;1.67;;;1.15;;
55372;SDS011;70018;47.838;16.490;2023-05-10T10:22:04;1.73;;;1.00;;
55372;SDS011;70018;47.838;16.490;2023-05-10T10:24:31;1.30;;;1.00;;
55372;SDS011;70018;47.838;16.490;2023-05-10T10:27:45;1.13;;;0.88;;
55372;SDS011;70018;47.838;16.490;2023-05-10T10:30:02;1.70;;;1.30;;
55372;SDS011;70018;47.838;16.490;2023-05-10T10:32:42;1.88;;;1.45;;
55372;SDS011;70018;47.838;16.490;2023-05-10T10:35:14;1.27;;;1.17;;
55372;SDS011;70018;47.838;16.490;2023-05-10T10:37:45;3.25;;;1.13;;
55372;SDS011;70018;47.838;16.490;2023-05-10T10:40:32;2.35;;;1.08;;
55372;SDS011;70018;47.838;16.490;2023-05-10T10:48:48;1.27;;;0.90;;
55372;SDS011;70018;47.838;16.490;2023-05-10T10:51:37;1.25;;;0.88;;
55372;SDS011;70018;47.838;16.490;2023-05-10T10:54:10;3.67;;;1.40;;
55372;SDS011;70018;47.838;16.490;2023-05-10T10:59:04;1.10;;;0.77;;
55372;SDS011;70018;47.838;16.490;2023-05-10T11:01:34;3.53;;;0.63;;
55372;SDS011;70018;47.838;16.490;2023-05-10T11:06:31;1.55;;;0.80;;
55372;SDS011;70018;47.838;16.490;2023-05-10T11:08:59;1.45;;;0.95;;
55372;SDS011;70018;47.838;16.490;2023-05-10T11:11:31;1.00;;;0.70;;
55372;SDS011;70018;47.838;16.490;2023-05-10T11:14:02;1.85;;;1.00;;
55372;SDS011;70018;47.838;16.490;2023-05-10T11:16:40;0.80;;;0.77;;
55372;SDS011;70018;47.838;16.490;2023-05-10T11:19:10;1.45;;;0.70;;
55372;SDS011;70018;47.838;16.490;2023-05-10T11:21:45;0.60;;;0.60;;
55372;SDS011;70018;47.838;16.490;2023-05-10T11:24:18;1.92;;;0.98;;
55372;SDS011;70018;47.838;16.490;2023-05-10T11:26:49;1.58;;;0.82;;
55372;SDS011;70018;47.838;16.490;2023-05-10T11:29:16;1.15;;;0.80;;
55372;SDS011;70018;47.838;16.490;2023-05-10T11:31:43;0.60;;;0.60;;
55372;SDS011;70018;47.838;16.490;2023-05-10T11:34:11;0.95;;;0.80;;
55372;SDS011;70018;47.838;16.490;2023-05-10T11:36:40;1.13;;;0.80;;
55372;SDS011;70018;47.838;16.490;2023-05-10T11:39:07;2.00;;;0.90;;
55372;SDS011;70018;47.838;16.490;2023-05-10T11:41:33;0.82;;;0.65;;
55372;SDS011;70018;47.838;16.490;2023-05-10T11:44:00;2.38;;;0.70;;
55372;SDS011;70018;47.838;16.490;2023-05-10T11:46:27;1.10;;;0.70;;
55372;SDS011;70018;47.838;16.490;2023-05-10T11:48:58;1.10;;;0.90;;
55372;SDS011;70018;47.838;16.490;2023-05-10T11:51:27;5.32;;;0.82;;
55372;SDS011;70018;47.838;16.490;2023-05-10T11:53:54;0.70;;;0.70;;
55372;SDS011;70018;47.838;16.490;2023-05-10T11:56:22;2.72;;;0.77;;
55372;SDS011;70018;47.838;16.490;2023-05-10T11:58:56;1.52;;;0.80;;
55372;SDS011;70018;47.838;16.490;2023-05-10T12:01:24;1.65;;;0.80;;
55372;SDS011;70018;47.838;16.490;2023-05-10T12:03:54;1.20;;;0.80;;
55372;SDS011;70018;47.838;16.490;2023-05-10T12:06:29;1.10;;;0.73;;
55372;SDS011;70018;47.838;16.490;2023-05-10T12:08:59;1.67;;;0.85;;
55372;SDS011;70018;47.838;16.490;2023-05-10T12:11:26;1.95;;;0.82;;
55372;SDS011;70018;47.838;16.490;2023-05-10T12:13:54;0.77;;;0.70;;
55372;SDS011;70018;47.838;16.490;2023-05-10T12:16:23;1.17;;;0.80;;
55372;SDS011;70018;47.838;16.490;2023-05-10T12:18:51;1.75;;;0.80;;
55372;SDS011;70018;47.838;16.490;2023-05-10T12:21:19;1.30;;;0.80;;
55372;SDS011;70018;47.838;16.490;2023-05-10T12:23:51;1.38;;;0.80;;
55372;SDS011;70018;47.838;16.490;2023-05-10T12:26:22;1.55;;;0.80;;
55372;SDS011;70018;47.838;16.490;2023-05-10T12:28:50;1.00;;;0.68;;
55372;SDS011;70018;47.838;16.490;2023-05-10T12:31:17;1.45;;;1.05;;
55372;SDS011;70018;47.838;16.490;2023-05-10T12:33:44;0.65;;;0.65;;
55372;SDS011;70018;47.838;16.490;2023-05-10T12:36:13;1.08;;;0.70;;
55372;SDS011;70018;47.838;16.490;2023-05-10T12:38:42;1.08;;;0.75;;
55372;SDS011;70018;47.838;16.490;2023-05-10T12:41:10;1.10;;;0.98;;
55372;SDS011;70018;47.838;16.490;2023-05-10T12:43:39;0.75;;;0.70;;
55372;SDS011;70018;47.838;16.490;2023-05-10T12:48:38;1.80;;;1.02;;
55372;SDS011;70018;47.838;16.490;2023-05-10T12:51:06;1.10;;;0.77;;
55372;SDS011;70018;47.838;16.490;2023-05-10T12:53:39;2.45;;;0.90;;
55372;SDS011;70018;47.838;16.490;2023-05-10T12:56:09;1.20;;;0.88;;
55372;SDS011;70018;47.838;16.490;2023-05-10T12:58:36;3.45;;;1.00;;
55372;SDS011;70018;47.838;16.490;2023-05-10T13:01:02;1.17;;;0.80;;
55372;SDS011;70018;47.838;16.490;2023-05-10T13:03:31;0.85;;;0.70;;
55372;SDS011;70018;47.838;16.490;2023-05-10T13:05:57;1.17;;;0.88;;
55372;SDS011;70018;47.838;16.490;2023-05-10T13:08:24;6.03;;;1.23;;
55372;SDS011;70018;47.838;16.490;2023-05-10T13:10:51;0.77;;;0.75;;
55372;SDS011;70018;47.838;16.490;2023-05-10T13:13:17;1.00;;;0.70;;
55372;SDS011;70018;47.838;16.490;2023-05-10T13:15:44;2.15;;;0.80;;
55372;SDS011;70018;47.838;16.490;2023-05-10T13:18:11;5.30;;;1.10;;
55372;SDS011;70018;47.838;16.490;2023-05-10T13:20:37;1.58;;;0.70;;
55372;SDS011;70018;47.838;16.490;2023-05-10T13:23:04;1.35;;;0.98;;
55372;SDS011;70018;47.838;16.490;2023-05-10T13:25:31;0.93;;;0.80;;
55372;SDS011;70018;47.838;16.490;2023-05-10T13:27:57;1.55;;;0.93;;
55372;SDS011;70018;47.838;16.490;2023-05-10T13:30:24;3.13;;;0.93;;
55372;SDS011;70018;47.838;16.490;2023-05-10T13:32:51;1.27;;;0.98;;
55372;SDS011;70018;47.838;16.490;2023-05-10T13:35:17;3.17;;;0.75;;
55372;SDS011;70018;47.838;16.490;2023-05-10T13:37:44;1.30;;;1.20;;
55372;SDS011;70018;47.838;16.490;2023-05-10T13:40:11;1.00;;;0.85;;
55372;SDS011;70018;47.838;16.490;2023-05-10T13:42:37;0.93;;;0.80;;
55372;SDS011;70018;47.838;16.490;2023-05-10T13:45:04;1.70;;;0.80;;
55372;SDS011;70018;47.838;16.490;2023-05-10T13:47:31;0.63;;;0.60;;
55372;SDS011;70018;47.838;16.490;2023-05-10T13:49:58;1.92;;;0.88;;
55372;SDS011;70018;47.838;16.490;2023-05-10T13:52:25;1.27;;;0.82;;
55372;SDS011;70018;47.838;16.490;2023-05-10T13:54:52;0.82;;;0.68;;
55372;SDS011;70018;47.838;16.490;2023-05-10T13:57:21;1.00;;;0.70;;
55372;SDS011;70018;47.838;16.490;2023-05-10T13:59:48;1.02;;;0.77;;
55372;SDS011;70018;47.838;16.490;2023-05-10T14:02:15;1.52;;;1.08;;
55372;SDS011;70018;47.838;16.490;2023-05-10T14:04:41;2.33;;;0.70;;
55372;SDS011;70018;47.838;16.490;2023-05-10T14:07:08;2.47;;;0.75;;
55372;SDS011;70018;47.838;16.490;2023-05-10T14:09:34;0.60;;;0.60;;
55372;SDS011;70018;47.838;16.490;2023-05-10T14:12:01;1.50;;;0.90;;
55372;SDS011;70018;47.838;16.490;2023-05-10T14:14:28;0.70;;;0.70;;
55372;SDS011;70018;47.838;16.490;2023-05-10T14:16:55;1.38;;;0.85;;
55372;SDS011;70018;47.838;16.490;2023-05-10T14:19:22;0.95;;;0.73;;
55372;SDS011;70018;47.838;16.490;2023-05-10T14:21:48;1.25;;;0.60;;
55372;SDS011;70018;47.838;16.490;2023-05-10T14:24:15;1.55;;;0.80;;
55372;SDS011;70018;47.838;16.490;2023-05-10T14:26:41;2.67;;;0.70;;
55372;SDS011;70018;47.838;16.490;2023-05-10T14:29:08;0.82;;;0.60;;
55372;SDS011;70018;47.838;16.490;2023-05-10T14:31:37;0.88;;;0.80;;
55372;SDS011;70018;47.838;16.490;2023-05-10T14:34:04;1.10;;;0.70;;
55372;SDS011;70018;47.838;16.490;2023-05-10T14:36:32;1.00;;;0.80;;
55372;SDS011;70018;47.838;16.490;2023-05-10T14:38:58;0.60;;;0.60;;
55372;SDS011;70018;47.838;16.490;2023-05-10T14:41:25;1.25;;;0.77;;
55372;SDS011;70018;47.838;16.490;2023-05-10T14:43:52;0.60;;;0.60;;
55372;SDS011;70018;47.838;16.490;2023-05-10T14:46:18;3.35;;;0.80;;
55372;SDS011;70018;47.838;16.490;2023-05-10T14:48:46;6.05;;;0.82;;
55372;SDS011;70018;47.838;16.490;2023-05-10T14:51:12;1.98;;;0.70;;
55372;SDS011;70018;47.838;16.490;2023-05-10T14:53:39;0.88;;;0.50;;
55372;SDS011;70018;47.838;16.490;2023-05-10T14:56:06;0.88;;;0.60;;
55372;SDS011;70018;47.838;16.490;2023-05-10T14:58:33;1.42;;;0.60;;
55372;SDS011;70018;47.838;16.490;2023-05-10T15:00:59;1.25;;;0.70;;
55372;SDS011;70018;47.838;16.490;2023-05-10T15:03:27;3.30;;;0.73;;
55372;SDS011;70018;47.838;16.490;2023-05-10T15:05:55;1.52;;;0.85;;
55372;SDS011;70018;47.838;16.490;2023-05-10T15:08:23;1.42;;;0.70;;
55372;SDS011;70018;47.838;16.490;2023-05-10T15:10:53;0.85;;;0.60;;
55372;SDS011;70018;47.838;16.490;2023-05-10T15:13:22;4.82;;;0.80;;